Time;durP1;ratioP1;P1;durP2;ratioP2;P2;SDS_P1;SDS_P2;PMS_P1;PMS_P2;Temp;Humidity;BMP_temperature;BMP_pressure;BME280_temperature;BME280_humidity;BME280_pressure;Samples;Min_cycle;Max_cycle;Signal;HPM_P1;HPM_P2
2022/12/23 00:00:30;;;;;;;;;;;;;;;7.93;87.48;97047.44;5067482;28;19932;-66
2022/12/23 00:02:58;;;;;;;;;;;;;;;7.99;87.21;97039.94;5078512;28;19947;-66
2022/12/23 00:05:29;;;;;;;;;;;;;;;8.00;87.10;97038.88;5067498;28;19977;-66
2022/12/23 00:08:05;;;;;;;;;;;;;;;7.97;87.28;97037.56;5059901;28;19932;-66
2022/12/23 00:10:34;;;;;;;;;;;;;;;7.95;87.53;97039.81;5062371;28;19949;-66
2022/12/23 00:15:47;;;;;;;;;;;;;;;7.96;87.34;97030.56;5054567;28;19982;-67
2022/12/23 00:18:16;;;;;;;;;;;;;;;7.93;87.26;97023.09;5072754;28;19924;-67
2022/12/23 00:20:44;;;;;;;;;;;;;;;7.95;87.65;97025.50;5061100;28;19928;-67
2022/12/23 00:23:13;;;;;;;;;;;;;;;7.95;87.38;97017.38;5067791;28;19924;-66
2022/12/23 00:25:43;;;;;;;;;;;;;;;7.90;87.37;97014.81;5070771;27;19923;-67
2022/12/23 00:28:12;;;;;;;;;;;;;;;8.01;87.39;97024.22;5112175;28;19924;-72
2022/12/23 00:30:45;;;;;;;;;;;;;;;8.02;87.31;97023.09;5083477;28;20327;-67
2022/12/23 00:33:13;;;;;;;;;;;;;;;8.06;86.65;97019.47;5084296;28;19999;-67
2022/12/23 00:35:42;;;;;;;;;;;;;;;7.98;87.64;97014.03;5107282;27;19924;-67
2022/12/23 00:38:10;;;;;;;;;;;;;;;8.00;87.68;97014.53;5107376;28;19930;-66
2022/12/23 00:43:48;;;;;;;;;;;;;;;8.01;87.54;97013.41;5120052;27;19984;-66
2022/12/23 00:46:17;;;;;;;;;;;;;;;8.07;87.68;97014.84;5103860;28;20295;-66
2022/12/23 00:51:32;;;;;;;;;;;;;;;8.02;87.73;97015.00;5111849;27;19928;-66
2022/12/23 00:54:00;;;;;;;;;;;;;;;7.95;88.10;97022.78;5080761;28;19924;-66
2022/12/23 00:56:30;;;;;;;;;;;;;;;7.95;88.22;97014.69;5104074;27;19923;-66
2022/12/23 00:58:58;;;;;;;;;;;;;;;7.95;88.42;97009.25;5095100;28;19968;-68
2022/12/23 01:06:57;;;;;;;;;;;;;;;7.96;88.71;97002.75;5102651;27;19928;-66
2022/12/23 01:09:27;;;;;;;;;;;;;;;7.98;88.82;97006.72;5107955;27;19923;-67
2022/12/23 01:11:56;;;;;;;;;;;;;;;8.07;88.43;97009.44;5099248;28;19951;-66
2022/12/23 01:14:24;;;;;;;;;;;;;;;8.01;89.14;97008.00;5104741;28;19924;-66
2022/12/23 01:16:52;;;;;;;;;;;;;;;7.89;89.50;97000.50;5095176;28;19978;-66
2022/12/23 01:19:20;;;;;;;;;;;;;;;7.88;89.56;97005.13;5105447;27;19923;-66
2022/12/23 01:21:48;;;;;;;;;;;;;;;7.96;89.72;97000.03;5105860;27;19924;-66
2022/12/23 01:24:16;;;;;;;;;;;;;;;7.90;89.95;96993.97;5089686;28;19928;-66
2022/12/23 01:26:45;;;;;;;;;;;;;;;8.00;89.80;97001.00;5122015;27;19924;-67
2022/12/23 01:29:15;;;;;;;;;;;;;;;8.01;89.39;97005.28;5074971;28;19924;-66
2022/12/23 01:31:44;;;;;;;;;;;;;;;8.06;89.08;97002.44;5096346;27;20380;-67
2022/12/23 01:34:12;;;;;;;;;;;;;;;8.06;88.94;97002.44;5096727;28;20272;-66
2022/12/23 01:36:40;;;;;;;;;;;;;;;8.04;88.97;97010.06;5098712;28;19938;-66
2022/12/23 01:39:33;;;;;;;;;;;;;;;8.10;89.05;97006.91;5116086;27;19934;-66
2022/12/23 01:44:54;;;;;;;;;;;;;;;8.13;88.73;97000.84;5090048;28;19928;-66
2022/12/23 01:47:47;;;;;;;;;;;;;;;8.12;88.70;96991.13;5095092;27;20396;-66
2022/12/23 01:50:40;;;;;;;;;;;;;;;8.02;88.77;96975.22;5100695;27;19930;-66
2022/12/23 01:53:09;;;;;;;;;;;;;;;7.99;89.11;96983.97;5105077;27;19939;-66
2022/12/23 01:55:38;;;;;;;;;;;;;;;8.05;88.91;96984.63;5099783;27;19928;-66
2022/12/23 01:58:08;;;;;;;;;;;;;;;8.09;88.84;96985.56;5088418;28;21959;-66
2022/12/23 02:03:41;;;;;;;;;;;;;;;8.14;88.64;96988.09;5095035;28;19931;-66
2022/12/23 02:11:47;;;;;;;;;;;;;;;8.08;89.06;97000.19;5112177;28;19923;-67
2022/12/23 02:17:30;;;;;;;;;;;;;;;8.11;88.69;97008.50;5077908;28;19932;-66
2022/12/23 02:20:19;;;;;;;;;;;;;;;8.07;88.86;97004.81;5102231;28;19930;-66
2022/12/23 02:22:55;;;;;;;;;;;;;;;8.11;89.34;97010.41;5081492;28;19928;-67
2022/12/23 02:25:29;;;;;;;;;;;;;;;8.14;89.35;97002.41;5082451;28;19943;-66
2022/12/23 02:28:22;;;;;;;;;;;;;;;8.12;89.34;97009.28;5094166;28;20320;-66
2022/12/23 02:30:52;;;;;;;;;;;;;;;8.19;88.97;97000.69;5085905;28;19924;-66
2022/12/23 02:33:30;;;;;;;;;;;;;;;8.12;89.50;97006.56;5100226;28;20392;-66
2022/12/23 02:36:23;;;;;;;;;;;;;;;8.19;89.50;97006.09;5082190;28;19976;-66
2022/12/23 02:39:16;;;;;;;;;;;;;;;8.15;89.57;96997.84;5102354;28;20372;-66
2022/12/23 02:41:48;;;;;;;;;;;;;;;8.04;90.08;96994.66;5111791;28;19924;-67
2022/12/23 02:44:19;;;;;;;;;;;;;;;8.10;90.66;96998.00;5108815;28;20361;-66
2022/12/23 02:46:49;;;;;;;;;;;;;;;8.09;90.18;96999.88;5081061;28;19974;-66
2022/12/23 02:49:18;;;;;;;;;;;;;;;8.08;90.41;97000.19;5127780;27;19928;-66
2022/12/23 02:51:47;;;;;;;;;;;;;;;8.08;90.26;97001.00;5091705;28;19923;-66
2022/12/23 02:54:16;;;;;;;;;;;;;;;8.06;90.93;97002.44;5091667;28;19927;-71
2022/12/23 02:56:45;;;;;;;;;;;;;;;8.07;90.52;97004.03;5103017;28;19924;-66
2022/12/23 02:59:14;;;;;;;;;;;;;;;8.04;90.75;96999.22;5106620;28;20316;-67
2022/12/23 03:01:42;;;;;;;;;;;;;;;7.98;91.18;96993.19;5095583;28;19928;-67
2022/12/23 03:04:11;;;;;;;;;;;;;;;8.01;91.18;96994.47;5110851;27;19930;-66
2022/12/23 03:06:39;;;;;;;;;;;;;;;8.09;90.87;96985.56;5108851;28;19923;-66
2022/12/23 03:09:10;;;;;;;;;;;;;;;8.11;90.66;96986.06;5110553;28;19926;-66
2022/12/23 03:11:41;;;;;;;;;;;;;;;8.13;90.84;96990.00;5107282;27;19932;-66
2022/12/23 03:14:14;;;;;;;;;;;;;;;8.15;90.46;96989.72;5104137;28;19969;-69
2022/12/23 03:16:46;;;;;;;;;;;;;;;8.10;90.44;96993.38;5090454;28;19925;-67
2022/12/23 03:19:16;;;;;;;;;;;;;;;8.09;90.69;96997.16;5101631;28;19970;-66
2022/12/23 03:21:46;;;;;;;;;;;;;;;8.08;90.54;96983.97;5103824;28;19928;-67
2022/12/23 03:24:17;;;;;;;;;;;;;;;8.10;90.39;96987.16;5112939;28;19924;-66
2022/12/23 03:26:48;;;;;;;;;;;;;;;8.10;90.38;96989.88;5102059;27;19935;-70
2022/12/23 03:29:17;;;;;;;;;;;;;;;8.13;90.18;96989.22;5099016;28;20306;-66
2022/12/23 03:31:45;;;;;;;;;;;;;;;8.08;90.21;97001.00;5096365;28;19924;-66
2022/12/23 03:34:14;;;;;;;;;;;;;;;8.07;90.53;96994.00;5103722;27;20285;-66
2022/12/23 03:36:45;;;;;;;;;;;;;;;8.07;90.98;97004.81;5115094;27;19929;-67
2022/12/23 03:39:38;;;;;;;;;;;;;;;8.06;90.37;97002.44;5108412;27;19924;-66
2022/12/23 03:42:07;;;;;;;;;;;;;;;8.09;90.33;97009.91;5101852;27;19932;-66
2022/12/23 03:45:00;;;;;;;;;;;;;;;8.02;90.79;97007.66;5103072;27;19947;-66
2022/12/23 03:48:13;;;;;;;;;;;;;;;8.06;90.66;97007.84;5086404;27;19970;-66
2022/12/23 03:51:09;;;;;;;;;;;;;;;8.01;91.35;97000.69;5097323;27;19947;-65
2022/12/23 03:53:39;;;;;;;;;;;;;;;8.06;90.82;97007.84;5090616;28;19970;-66
2022/12/23 03:56:08;;;;;;;;;;;;;;;8.04;90.92;97010.06;5109954;27;19923;-65
2022/12/23 03:58:37;;;;;;;;;;;;;;;7.98;91.30;97006.72;5107102;27;20284;-66
2022/12/23 04:01:05;;;;;;;;;;;;;;;8.07;91.23;97015.63;5102664;28;19930;-67
2022/12/23 04:03:34;;;;;;;;;;;;;;;8.04;91.32;97020.88;5103351;27;20377;-65
2022/12/23 04:06:02;;;;;;;;;;;;;;;8.09;91.13;97023.44;5119614;27;19923;-66
2022/12/23 04:08:31;;;;;;;;;;;;;;;8.10;91.22;97015.00;5111140;27;19935;-66
2022/12/23 04:11:00;;;;;;;;;;;;;;;8.02;91.51;97007.66;5080732;28;19930;-66
2022/12/23 04:13:28;;;;;;;;;;;;;;;8.02;91.55;97017.69;5116546;27;19928;-66
2022/12/23 04:15:57;;;;;;;;;;;;;;;8.07;91.52;97009.44;5113324;27;20349;-66
2022/12/23 04:18:25;;;;;;;;;;;;;;;8.08;91.64;97011.81;5117922;27;19923;-66
2022/12/23 04:20:53;;;;;;;;;;;;;;;8.12;91.10;97022.81;5113769;27;19972;-66
2022/12/23 04:23:21;;;;;;;;;;;;;;;8.12;91.27;97020.91;5127293;27;20371;-66
2022/12/23 04:25:51;;;;;;;;;;;;;;;8.11;91.46;97026.63;5098595;28;19924;-66
2022/12/23 04:28:21;;;;;;;;;;;;;;;8.10;91.63;97025.84;5102298;28;19931;-66
2022/12/23 04:30:49;;;;;;;;;;;;;;;8.14;91.40;97036.81;5107032;27;19973;-66
2022/12/23 04:33:17;;;;;;;;;;;;;;;8.14;91.15;97034.09;5109740;27;19924;-66
2022/12/23 04:35:45;;;;;;;;;;;;;;;8.16;91.28;97029.19;5108126;27;19950;-67
2022/12/23 04:38:12;;;;;;;;;;;;;;;8.19;91.38;97038.56;5102554;28;19927;-66
2022/12/23 04:40:41;;;;;;;;;;;;;;;8.21;91.41;97031.75;5101435;28;19932;-66
2022/12/23 04:43:09;;;;;;;;;;;;;;;8.17;91.25;97044.28;5107354;28;19981;-67
2022/12/23 04:45:38;;;;;;;;;;;;;;;8.16;91.14;97031.88;5107455;27;19930;-66
2022/12/23 04:48:06;;;;;;;;;;;;;;;8.19;91.35;97035.84;5109819;28;19923;-66
2022/12/23 04:50:34;;;;;;;;;;;;;;;8.17;91.40;97043.50;5110528;28;19924;-66
2022/12/23 04:53:02;;;;;;;;;;;;;;;8.16;91.38;97048.13;5106859;27;19935;-66
2022/12/23 04:55:30;;;;;;;;;;;;;;;8.22;91.38;97052.25;5121668;27;19924;-66
2022/12/23 04:57:58;;;;;;;;;;;;;;;8.21;91.44;97055.28;5101493;28;19928;-66
2022/12/23 05:00:26;;;;;;;;;;;;;;;8.19;91.37;97055.59;5105092;27;19931;-65
2022/12/23 05:02:58;;;;;;;;;;;;;;;8.19;91.47;97058.28;5109343;27;19954;-67
2022/12/23 05:05:26;;;;;;;;;;;;;;;8.21;91.09;97058.78;5106029;27;19923;-66
2022/12/23 05:08:01;;;;;;;;;;;;;;;8.20;91.32;97062.59;5100324;27;19935;-66
2022/12/23 05:10:29;;;;;;;;;;;;;;;8.20;91.41;97067.19;5107490;28;19927;-66
2022/12/23 05:12:57;;;;;;;;;;;;;;;8.25;91.30;97059.72;5102992;28;19924;-66
2022/12/23 05:15:26;;;;;;;;;;;;;;;8.23;91.47;97067.38;5101977;27;20364;-66
2022/12/23 05:17:54;;;;;;;;;;;;;;;8.27;91.42;97084.59;5108992;28;19936;-66
2022/12/23 05:20:23;;;;;;;;;;;;;;;8.30;91.22;97078.53;5101959;27;20442;-66
2022/12/23 05:22:51;;;;;;;;;;;;;;;8.32;91.29;97072.81;5101162;28;19931;-66
2022/12/23 05:25:19;;;;;;;;;;;;;;;8.31;91.13;97079.31;5102473;27;19924;-66
2022/12/23 05:27:47;;;;;;;;;;;;;;;8.35;91.16;97085.69;5097382;28;20428;-66
2022/12/23 05:30:15;;;;;;;;;;;;;;;8.34;91.63;97090.31;5089788;27;19924;-67
2022/12/23 05:32:43;;;;;;;;;;;;;;;8.34;91.12;97094.94;5105069;27;19930;-67
2022/12/23 05:35:11;;;;;;;;;;;;;;;8.45;91.09;97088.13;5094536;27;19923;-66
2022/12/23 05:37:42;;;;;;;;;;;;;;;8.41;91.06;97084.47;5105479;28;19924;-66
2022/12/23 05:40:10;;;;;;;;;;;;;;;8.39;90.64;97084.78;5104276;27;19924;-66
2022/12/23 05:42:41;;;;;;;;;;;;;;;8.34;90.71;97084.91;5081316;28;19931;-66
2022/12/23 05:45:09;;;;;;;;;;;;;;;8.35;91.21;97080.28;5101535;28;19924;-67
2022/12/23 05:50:34;;;;;;;;;;;;;;;8.40;91.23;97094.47;5082581;28;19976;-66
2022/12/23 05:53:04;;;;;;;;;;;;;;;8.41;90.87;97095.28;5089541;27;19928;-66
2022/12/23 05:55:32;;;;;;;;;;;;;;;8.38;90.56;97095.94;5101782;27;19924;-66
2022/12/23 05:57:59;;;;;;;;;;;;;;;8.45;91.07;97101.66;5100018;27;20021;-66
2022/12/23 06:00:28;;;;;;;;;;;;;;;8.49;90.66;97101.84;5100211;28;20339;-67
2022/12/23 06:02:56;;;;;;;;;;;;;;;8.60;90.46;97098.50;5083500;28;19924;-66
2022/12/23 06:05:24;;;;;;;;;;;;;;;8.54;90.25;97105.19;5108110;28;19928;-67
2022/12/23 06:07:53;;;;;;;;;;;;;;;8.59;90.50;97105.03;5102130;27;19943;-66
2022/12/23 06:10:22;;;;;;;;;;;;;;;8.56;90.33;97102.94;5108645;28;19942;-66
2022/12/23 06:12:50;;;;;;;;;;;;;;;8.58;90.39;97110.78;5107980;28;20356;-66
2022/12/23 06:15:18;;;;;;;;;;;;;;;8.59;90.16;97123.19;5105165;28;20395;-66
2022/12/23 06:17:47;;;;;;;;;;;;;;;8.62;90.06;97125.25;5104621;28;20296;-66
2022/12/23 06:20:15;;;;;;;;;;;;;;;8.61;90.28;97123.66;5096158;28;19928;-67
2022/12/23 06:22:47;;;;;;;;;;;;;;;8.65;90.04;97122.69;5102269;28;19928;-66
2022/12/23 06:25:15;;;;;;;;;;;;;;;8.70;90.24;97135.28;5077898;28;20380;-67
2022/12/23 06:27:45;;;;;;;;;;;;;;;8.69;90.21;97141.03;5094969;28;20142;-66
2022/12/23 06:30:13;;;;;;;;;;;;;;;8.73;89.74;97140.06;5092465;28;19927;-67
2022/12/23 06:32:41;;;;;;;;;;;;;;;8.78;89.35;97142.63;5097074;28;19925;-66
2022/12/23 06:35:09;;;;;;;;;;;;;;;8.81;89.83;97141.19;5097082;28;19927;-66
2022/12/23 06:37:38;;;;;;;;;;;;;;;8.78;89.71;97134.50;5090302;28;19974;-66
2022/12/23 06:40:06;;;;;;;;;;;;;;;8.76;89.53;97139.44;5094107;28;19975;-66
2022/12/23 06:42:34;;;;;;;;;;;;;;;8.81;89.57;97142.00;5105724;28;19928;-66
2022/12/23 06:45:06;;;;;;;;;;;;;;;8.91;88.95;97146.28;5104979;27;19931;-66
2022/12/23 06:50:27;;;;;;;;;;;;;;;8.86;88.90;97149.16;5083445;27;19929;-65
2022/12/23 06:52:57;;;;;;;;;;;;;;;8.80;89.16;97151.22;5100305;28;20372;-66
2022/12/23 06:55:26;;;;;;;;;;;;;;;8.73;89.16;97161.72;5103185;28;19928;-66
2022/12/23 06:57:54;;;;;;;;;;;;;;;8.73;89.15;97171.75;5098940;27;20331;-66
2022/12/23 07:00:24;;;;;;;;;;;;;;;8.69;89.51;97178.94;5103440;28;19931;-66
2022/12/23 07:02:53;;;;;;;;;;;;;;;8.72;89.44;97181.81;5112856;27;19940;-65
2022/12/23 07:05:21;;;;;;;;;;;;;;;8.84;88.86;97182.00;5103638;27;19928;-64
2022/12/23 07:07:49;;;;;;;;;;;;;;;8.88;88.76;97184.84;5104068;28;19931;-65
2022/12/23 07:10:17;;;;;;;;;;;;;;;8.87;88.71;97181.34;5117348;27;19928;-65
2022/12/23 07:12:45;;;;;;;;;;;;;;;8.84;88.87;97197.41;5102706;27;19932;-65
2022/12/23 07:15:17;;;;;;;;;;;;;;;9.00;88.06;97193.16;5103480;27;20327;-66
2022/12/23 07:17:47;;;;;;;;;;;;;;;9.02;87.74;97199.03;5106256;27;19939;-65
2022/12/23 07:20:15;;;;;;;;;;;;;;;9.11;87.53;97202.56;5104200;27;19932;-66
2022/12/23 07:22:43;;;;;;;;;;;;;;;9.02;87.53;97207.19;5091586;28;19931;-66
2022/12/23 07:25:11;;;;;;;;;;;;;;;9.07;87.66;97209.72;5099434;27;20296;-67
2022/12/23 07:27:39;;;;;;;;;;;;;;;8.99;87.81;97212.41;5088646;28;19938;-66
2022/12/23 07:30:08;;;;;;;;;;;;;;;9.09;86.99;97220.25;5086652;28;19931;-66
2022/12/23 07:32:36;;;;;;;;;;;;;;;9.09;86.61;97218.31;5088421;28;20361;-66
2022/12/23 07:35:06;;;;;;;;;;;;;;;9.23;85.49;97223.59;5099455;27;19982;-65
2022/12/23 07:37:35;;;;;;;;;;;;;;;9.23;84.98;97223.59;5101026;28;19936;-65
2022/12/23 07:40:02;;;;;;;;;;;;;;;9.27;84.23;97227.28;5105538;28;20385;-66
2022/12/23 07:42:38;;;;;;;;;;;;;;;9.18;84.12;97229.97;5102306;27;19924;-65
2022/12/23 07:45:14;;;;;;;;;;;;;;;9.26;83.25;97228.38;5097194;27;20373;-67
2022/12/23 07:48:08;;;;;;;;;;;;;;;9.23;83.16;97229.03;5104547;27;19951;-66
2022/12/23 07:50:38;;;;;;;;;;;;;;;9.33;82.83;97225.19;5099962;27;20019;-65
2022/12/23 07:53:10;;;;;;;;;;;;;;;9.40;82.62;97228.22;5077954;28;19924;-65
2022/12/23 07:55:38;;;;;;;;;;;;;;;9.26;82.87;97217.53;5085322;28;19924;-65
2022/12/23 07:58:06;;;;;;;;;;;;;;;9.36;82.70;97219.91;5099146;27;19932;-67
2022/12/23 08:00:34;;;;;;;;;;;;;;;9.31;82.58;97228.22;5077557;28;20319;-65
2022/12/23 08:03:02;;;;;;;;;;;;;;;9.29;82.74;97222.31;5098968;27;20030;-66
2022/12/23 08:05:30;;;;;;;;;;;;;;;9.29;82.91;97222.31;5105463;27;20044;-66
2022/12/23 08:07:59;;;;;;;;;;;;;;;9.31;83.06;97219.28;5105138;27;19924;-65
2022/12/23 08:10:28;;;;;;;;;;;;;;;9.34;82.57;97214.03;5108171;28;20031;-65
2022/12/23 08:12:58;;;;;;;;;;;;;;;9.41;82.18;97214.34;5108998;27;19924;-66
2022/12/23 08:15:26;;;;;;;;;;;;;;;9.35;82.39;97222.94;5100526;27;19924;-64
2022/12/23 08:17:55;;;;;;;;;;;;;;;9.35;82.64;97221.03;5103535;27;19977;-66
2022/12/23 08:20:23;;;;;;;;;;;;;;;9.35;82.91;97218.31;5084493;28;19961;-65
2022/12/23 08:22:51;;;;;;;;;;;;;;;9.44;82.39;97229.97;5114529;27;19931;-65
2022/12/23 08:25:20;;;;;;;;;;;;;;;9.31;82.79;97217.38;5110379;27;19923;-65
2022/12/23 08:27:48;;;;;;;;;;;;;;;9.31;83.42;97220.06;5110648;27;20368;-68
2022/12/23 08:30:16;;;;;;;;;;;;;;;9.37;83.49;97218.78;5111075;27;20307;-66
2022/12/23 08:32:44;;;;;;;;;;;;;;;9.36;83.30;97222.63;5113362;27;19928;-67
2022/12/23 08:35:12;;;;;;;;;;;;;;;9.37;83.40;97228.84;5108281;27;19939;-66
2022/12/23 08:37:41;;;;;;;;;;;;;;;9.39;83.10;97238.25;5116859;27;19927;-65
2022/12/23 08:40:09;;;;;;;;;;;;;;;9.48;82.95;97256.44;5102940;28;20372;-66
2022/12/23 08:42:39;;;;;;;;;;;;;;;9.51;82.66;97267.44;5082195;28;20015;-65
2022/12/23 08:45:07;;;;;;;;;;;;;;;9.48;83.26;97267.28;5102909;27;19977;-66
2022/12/23 08:48:01;;;;;;;;;;;;;;;9.56;83.36;97280.03;5097787;27;19950;-65
2022/12/23 08:50:29;;;;;;;;;;;;;;;9.63;82.92;97277.63;5105230;27;19923;-65
2022/12/23 08:52:58;;;;;;;;;;;;;;;9.60;83.42;97286.44;5095702;28;19923;-65
2022/12/23 08:55:26;;;;;;;;;;;;;;;9.65;83.73;97291.69;5127682;27;19969;-65
2022/12/23 08:57:55;;;;;;;;;;;;;;;9.66;83.47;97279.72;5106781;28;19927;-65
2022/12/23 09:00:24;;;;;;;;;;;;;;;9.60;83.74;97275.56;5097737;28;19927;-65
2022/12/23 09:02:54;;;;;;;;;;;;;;;9.60;84.03;97278.28;5118621;27;22349;-65
2022/12/23 09:05:22;;;;;;;;;;;;;;;9.58;84.27;97277.78;5090797;28;19955;-65
2022/12/23 09:07:50;;;;;;;;;;;;;;;9.58;84.46;97272.38;5122483;27;19924;-65
2022/12/23 09:10:18;;;;;;;;;;;;;;;9.69;84.34;97279.06;5088964;28;20347;-65
2022/12/23 09:12:46;;;;;;;;;;;;;;;9.58;84.83;97266.94;5075617;28;19928;-65
2022/12/23 09:15:16;;;;;;;;;;;;;;;9.57;85.58;97263.44;5090599;28;19986;-65
2022/12/23 09:17:44;;;;;;;;;;;;;;;9.66;85.90;97264.25;5106197;27;20266;-64
2022/12/23 09:20:12;;;;;;;;;;;;;;;9.90;84.79;97263.72;5113830;27;20295;-64
2022/12/23 09:22:40;;;;;;;;;;;;;;;9.81;85.14;97259.44;5107938;28;19969;-64
2022/12/23 09:25:09;;;;;;;;;;;;;;;9.79;85.19;97246.19;5084315;28;19924;-64
2022/12/23 09:27:37;;;;;;;;;;;;;;;9.84;85.55;97251.44;5101169;27;20366;-64
2022/12/23 09:30:06;;;;;;;;;;;;;;;9.87;85.76;97258.16;5108028;27;19924;-65
2022/12/23 09:32:38;;;;;;;;;;;;;;;9.94;85.58;97263.88;5111058;27;20057;-64
2022/12/23 09:35:08;;;;;;;;;;;;;;;10.06;85.12;97271.34;5104669;28;20006;-69
2022/12/23 09:37:37;;;;;;;;;;;;;;;10.02;85.32;97254.94;5102718;27;19967;-64
2022/12/23 09:40:05;;;;;;;;;;;;;;;9.95;85.56;97255.41;5098305;28;19924;-64
2022/12/23 09:42:41;;;;;;;;;;;;;;;9.96;85.62;97257.03;5109480;27;19958;-64
2022/12/23 09:45:15;;;;;;;;;;;;;;;9.96;85.80;97246.16;5109631;27;19923;-64
2022/12/23 09:50:39;;;;;;;;;;;;;;;10.02;85.80;97232.44;5092643;28;19932;-65
2022/12/23 09:53:08;;;;;;;;;;;;;;;9.99;85.50;97239.28;5099060;28;20379;-64
2022/12/23 09:55:39;;;;;;;;;;;;;;;9.94;85.86;97236.75;5102311;27;19935;-64
2022/12/23 09:58:08;;;;;;;;;;;;;;;9.90;86.13;97233.06;5088258;28;19949;-65
2022/12/23 10:00:38;;;;;;;;;;;;;;;9.93;86.31;97246.00;5089914;28;19990;-64
2022/12/23 10:03:14;;;;;;;;;;;;;;;9.91;86.41;97249.06;5117936;27;19931;-64
2022/12/23 10:06:07;;;;;;;;;;;;;;;9.93;86.42;97241.38;5094059;28;20061;-58
2022/12/23 10:08:36;;;;;;;;;;;;;;;9.95;86.45;97249.97;5100690;28;19927;-64
2022/12/23 10:11:05;;;;;;;;;;;;;;;9.87;86.85;97248.09;5100597;27;19932;-60
2022/12/23 10:13:34;;;;;;;;;;;;;;;9.86;87.19;97260.06;5097155;28;19931;-60
2022/12/23 10:16:05;;;;;;;;;;;;;;;9.95;87.47;97266.25;5096800;28;19930;-61
2022/12/23 10:18:38;;;;;;;;;;;;;;;9.92;87.88;97264.19;5085871;28;19967;-60
2022/12/23 10:21:07;;;;;;;;;;;;;;;9.98;87.89;97259.41;5107685;28;19931;-61
2022/12/23 10:24:00;;;;;;;;;;;;;;;10.04;88.00;97257.31;5112718;28;20351;-60
2022/12/23 10:26:31;;;;;;;;;;;;;;;10.07;87.56;97252.03;5075309;28;19925;-60
2022/12/23 10:31:56;;;;;;;;;;;;;;;10.14;87.10;97224.41;5061424;28;19925;-61
2022/12/23 10:34:27;;;;;;;;;;;;;;;10.23;86.59;97228.72;5064117;28;20293;-61
2022/12/23 10:37:03;;;;;;;;;;;;;;;10.18;87.08;97219.91;5060402;28;19979;-61
2022/12/23 10:39:32;;;;;;;;;;;;;;;10.20;87.05;97229.31;5063811;28;19924;-61
2022/12/23 10:42:03;;;;;;;;;;;;;;;10.21;87.19;97219.25;5068528;28;19929;-60
2022/12/23 10:44:45;;;;;;;;;;;;;;;10.15;87.63;97220.56;5070082;28;20393;-61
2022/12/23 10:47:14;;;;;;;;;;;;;;;10.23;87.32;97222.44;5058108;28;19925;-61
2022/12/23 10:49:46;;;;;;;;;;;;;;;10.23;87.15;97217.03;5061174;28;19924;-61
2022/12/23 10:52:15;;;;;;;;;;;;;;;10.16;87.53;97222.13;5060739;28;19924;-61
2022/12/23 10:54:44;;;;;;;;;;;;;;;10.14;87.37;97225.19;5056552;28;20247;-61
2022/12/23 10:57:14;;;;;;;;;;;;;;;10.13;87.50;97229.03;5057600;28;19924;-60
2022/12/23 10:59:42;;;;;;;;;;;;;;;10.15;87.76;97251.19;5059268;28;19924;-62
2022/12/23 11:02:19;;;;;;;;;;;;;;;10.07;87.57;97243.09;5065010;28;20301;-61
2022/12/23 11:04:49;;;;;;;;;;;;;;;10.13;87.33;97239.09;5066766;28;19924;-61
2022/12/23 11:07:18;;;;;;;;;;;;;;;10.07;87.39;97226.81;5066612;28;19925;-61
2022/12/23 11:10:07;;;;;;;;;;;;;;;10.22;86.84;97218.13;5064029;28;19933;-61
2022/12/23 11:13:01;;;;;;;;;;;;;;;10.17;87.06;97219.13;5060800;28;19935;-60
2022/12/23 11:15:32;;;;;;;;;;;;;;;10.18;87.01;97219.91;5070459;28;19931;-61
2022/12/23 11:18:01;;;;;;;;;;;;;;;10.23;86.83;97211.59;5064566;28;20331;-60
2022/12/23 11:20:31;;;;;;;;;;;;;;;10.11;87.66;97206.81;5060728;28;19931;-60
2022/12/23 11:23:02;;;;;;;;;;;;;;;10.19;87.09;97202.50;5065835;28;20434;-61
2022/12/23 11:25:31;;;;;;;;;;;;;;;10.22;86.99;97201.84;5061105;28;19924;-62
2022/12/23 11:28:25;;;;;;;;;;;;;;;10.25;86.80;97203.16;5083123;28;20383;-61
2022/12/23 11:30:54;;;;;;;;;;;;;;;10.27;87.00;97201.69;5094147;28;19928;-61
2022/12/23 11:33:24;;;;;;;;;;;;;;;10.30;86.76;97195.63;5084126;28;19935;-61
2022/12/23 11:36:01;;;;;;;;;;;;;;;10.36;86.48;97202.44;5112073;28;19930;-60
2022/12/23 11:41:55;;;;;;;;;;;;;;;10.41;86.10;97182.47;5087610;28;19934;-60
2022/12/23 11:44:24;;;;;;;;;;;;;;;10.35;86.38;97183.78;5084222;28;19928;-61
2022/12/23 11:46:52;;;;;;;;;;;;;;;10.37;86.55;97185.03;5108074;28;19923;-60
2022/12/23 11:49:21;;;;;;;;;;;;;;;10.43;85.99;97183.72;5105529;28;19924;-61
2022/12/23 11:52:00;;;;;;;;;;;;;;;10.52;85.70;97174.72;5100365;28;19935;-61
2022/12/23 11:54:29;;;;;;;;;;;;;;;10.45;85.85;97165.19;5082003;28;19943;-60
2022/12/23 11:56:57;;;;;;;;;;;;;;;10.44;85.95;97163.59;5097215;28;19924;-61
2022/12/23 11:59:27;;;;;;;;;;;;;;;10.47;86.09;97160.22;5098752;28;19976;-61
2022/12/23 12:01:56;;;;;;;;;;;;;;;10.47;86.26;97154.00;5096226;28;20010;-61
2022/12/23 12:04:27;;;;;;;;;;;;;;;10.47;86.01;97152.06;5105777;28;19924;-61
2022/12/23 12:06:57;;;;;;;;;;;;;;;10.44;86.21;97150.03;5104296;28;19928;-60
2022/12/23 12:09:27;;;;;;;;;;;;;;;10.49;86.12;97147.13;5105355;28;19928;-61
2022/12/23 12:11:57;;;;;;;;;;;;;;;10.51;86.41;97154.94;5082037;28;20018;-61
2022/12/23 12:14:28;;;;;;;;;;;;;;;10.49;86.55;97154.44;5077071;28;19951;-61
2022/12/23 12:16:57;;;;;;;;;;;;;;;10.53;86.00;97149.16;5090740;28;20023;-60
2022/12/23 12:19:29;;;;;;;;;;;;;;;10.48;86.39;97136.56;5103321;28;19970;-61
2022/12/23 12:21:59;;;;;;;;;;;;;;;10.46;86.23;97136.91;5098557;28;19924;-61
2022/12/23 12:24:29;;;;;;;;;;;;;;;10.43;86.39;97132.13;5083663;28;19923;-61
2022/12/23 12:26:58;;;;;;;;;;;;;;;10.45;86.54;97131.81;5075529;28;19924;-60
2022/12/23 12:29:30;;;;;;;;;;;;;;;10.41;87.07;97131.66;5097403;28;19928;-60
2022/12/23 12:31:59;;;;;;;;;;;;;;;10.44;86.92;97120.16;5097338;28;19931;-61
2022/12/23 12:34:33;;;;;;;;;;;;;;;10.39;87.17;97125.78;5098905;28;19924;-60
2022/12/23 12:37:07;;;;;;;;;;;;;;;10.42;87.28;97127.81;5096233;28;20897;-62
2022/12/23 12:39:36;;;;;;;;;;;;;;;10.39;87.13;97112.19;5101598;28;19927;-61
2022/12/23 12:42:05;;;;;;;;;;;;;;;10.39;87.18;97106.78;5096457;27;19966;-62
2022/12/23 12:44:37;;;;;;;;;;;;;;;10.34;87.36;97108.88;5094181;27;19928;-61
2022/12/23 12:47:06;;;;;;;;;;;;;;;10.34;87.51;97108.88;5102790;28;19924;-61
2022/12/23 12:50:20;;;;;;;;;;;;;;;10.29;87.52;97107.16;5099389;28;20019;-61
2022/12/23 12:55:45;;;;;;;;;;;;;;;10.33;87.27;97091.78;5093235;28;19924;-61
2022/12/23 12:58:15;;;;;;;;;;;;;;;10.28;87.80;97085.75;5099039;28;19931;-61
2022/12/23 13:00:47;;;;;;;;;;;;;;;10.32;87.43;97087.47;5080686;28;20361;-61
2022/12/23 13:03:22;;;;;;;;;;;;;;;10.23;88.01;97084.00;5099244;28;19955;-62
2022/12/23 13:05:56;;;;;;;;;;;;;;;10.21;88.22;97091.66;5097088;28;19935;-61
2022/12/23 13:08:30;;;;;;;;;;;;;;;10.21;88.23;97094.38;5098910;28;19931;-61
2022/12/23 13:10:59;;;;;;;;;;;;;;;10.21;88.18;97094.38;5093472;28;20017;-63
2022/12/23 13:13:32;;;;;;;;;;;;;;;10.16;88.42;97094.56;5102354;28;19934;-62
2022/12/23 13:16:03;;;;;;;;;;;;;;;10.20;88.73;97092.78;5096896;28;19935;-61
2022/12/23 13:18:34;;;;;;;;;;;;;;;10.16;89.06;97091.84;5091150;28;19981;-61
2022/12/23 13:21:04;;;;;;;;;;;;;;;10.19;88.80;97080.34;5102179;28;19959;-62
2022/12/23 13:26:32;;;;;;;;;;;;;;;10.11;89.82;97073.03;5097833;28;19928;-61
2022/12/23 13:29:26;;;;;;;;;;;;;;;10.16;90.23;97064.72;5081266;28;19928;-62
2022/12/23 13:31:58;;;;;;;;;;;;;;;10.08;91.06;97062.88;5092691;27;20203;-62
2022/12/23 13:34:35;;;;;;;;;;;;;;;10.11;90.92;97051.34;5095296;27;19930;-62
2022/12/23 13:37:05;;;;;;;;;;;;;;;10.26;90.41;97031.78;5085358;28;19924;-61
2022/12/23 13:39:38;;;;;;;;;;;;;;;10.15;90.88;97019.69;5100466;27;20023;-61
2022/12/23 13:42:08;;;;;;;;;;;;;;;10.16;91.06;97022.06;5089767;27;19924;-61
2022/12/23 13:44:36;;;;;;;;;;;;;;;10.10;90.51;97033.47;5101641;28;19928;-61
2022/12/23 13:47:06;;;;;;;;;;;;;;;10.06;90.91;97033.31;5095255;27;19959;-61
2022/12/23 13:49:37;;;;;;;;;;;;;;;10.01;91.45;97013.72;5100031;28;20027;-61
2022/12/23 13:52:08;;;;;;;;;;;;;;;10.07;91.69;97005.09;5079606;28;19924;-61
2022/12/23 13:54:42;;;;;;;;;;;;;;;10.02;91.69;97007.19;5107126;28;20357;-61
2022/12/23 13:57:14;;;;;;;;;;;;;;;10.01;91.84;97008.28;5078344;28;20362;-61
2022/12/23 13:59:43;;;;;;;;;;;;;;;10.01;91.71;97003.66;5078013;28;20372;-62
2022/12/23 14:02:29;;;;;;;;;;;;;;;9.96;91.90;96996.53;5102424;28;19947;-61
2022/12/23 14:04:58;;;;;;;;;;;;;;;9.97;92.02;96998.13;5105816;28;19969;-61